Time;durP1;ratioP1;P1;durP2;ratioP2;P2;SDS_P1;SDS_P2;PMS_P1;PMS_P2;Temp;Humidity;BMP_temperature;BMP_pressure;BME280_temperature;BME280_humidity;BME280_pressure;Samples;Min_cycle;Max_cycle;Signal;HPM_P1;HPM_P2
2024/02/01 00:01:03;;;;;;;7.32;4.90;;;8.40;99.90;;;;;;5098537;28;20031;-32
2024/02/01 00:03:29;;;;;;;5.60;4.20;;;8.40;99.90;;;;;;5097289;28;20031;-33
2024/02/01 00:05:55;;;;;;;5.35;4.15;;;8.50;99.90;;;;;;5096770;28;20523;-34
2024/02/01 00:08:20;;;;;;;4.53;4.13;;;8.50;99.90;;;;;;5098682;28;20139;-35
2024/02/01 00:10:46;;;;;;;5.55;4.80;;;8.50;99.90;;;;;;5098103;28;20522;-37
2024/02/01 00:13:12;;;;;;;5.97;4.57;;;8.50;99.90;;;;;;5098694;28;20040;-36
2024/02/01 00:15:37;;;;;;;5.22;4.60;;;8.50;99.90;;;;;;5098550;28;20028;-37
2024/02/01 00:18:03;;;;;;;6.78;5.18;;;8.50;99.90;;;;;;5097609;28;20092;-35
2024/02/01 00:20:29;;;;;;;7.13;5.03;;;8.50;99.90;;;;;;5098526;28;20030;-33
2024/02/01 00:22:57;;;;;;;8.27;5.03;;;8.50;99.90;;;;;;5098917;28;20601;-36
2024/02/01 00:25:23;;;;;;;6.13;5.00;;;8.60;99.90;;;;;;5098614;28;20561;-31
2024/02/01 00:27:48;;;;;;;5.20;4.40;;;8.60;99.90;;;;;;5100740;28;20640;-33
2024/02/01 00:30:14;;;;;;;7.00;5.78;;;8.60;99.90;;;;;;5101928;28;20030;-32
2024/02/01 00:32:40;;;;;;;8.65;5.43;;;8.70;99.90;;;;;;5102169;28;20027;-33
2024/02/01 00:35:06;;;;;;;8.55;5.45;;;8.70;99.90;;;;;;5102101;28;20106;-35
2024/02/01 00:37:31;;;;;;;6.95;5.70;;;8.70;99.90;;;;;;5102290;28;20040;-35
2024/02/01 00:40:03;;;;;;;7.47;6.00;;;8.70;99.90;;;;;;5101958;28;20655;-36
2024/02/01 00:42:29;;;;;;;8.73;5.70;;;8.70;99.90;;;;;;5101903;28;20028;-31
2024/02/01 00:44:57;;;;;;;8.45;5.47;;;8.70;99.90;;;;;;5101003;28;20944;-33
2024/02/01 00:47:26;;;;;;;6.63;4.80;;;8.70;99.90;;;;;;5102091;28;20041;-34
2024/02/01 00:49:51;;;;;;;6.32;4.40;;;8.80;99.90;;;;;;5101952;28;20027;-36
2024/02/01 00:52:17;;;;;;;7.18;4.60;;;8.80;99.90;;;;;;5100676;28;20634;-37
2024/02/01 00:54:42;;;;;;;7.32;5.43;;;8.80;99.90;;;;;;5102244;28;20026;-34
2024/02/01 00:57:08;;;;;;;5.63;4.47;;;8.80;99.90;;;;;;5101763;28;20038;-35
2024/02/01 00:59:34;;;;;;;5.80;5.20;;;8.90;99.90;;;;;;5101081;28;20032;-35
2024/02/01 01:01:59;;;;;;;5.75;5.00;;;8.90;99.90;;;;;;5101563;28;20051;-34
2024/02/01 01:04:29;;;;;;;6.97;5.32;;;8.90;99.90;;;;;;5101898;28;20043;-35
2024/02/01 01:06:55;;;;;;;6.53;4.93;;;8.90;99.90;;;;;;5100231;28;20706;-35
2024/02/01 01:09:20;;;;;;;6.03;4.47;;;8.90;99.90;;;;;;5101809;28;20032;-35
2024/02/01 01:11:46;;;;;;;5.65;4.25;;;9.00;99.90;;;;;;5101604;28;20104;-36
2024/02/01 01:14:14;;;;;;;6.65;5.30;;;9.00;99.90;;;;;;5100711;28;20147;-37
2024/02/01 01:16:40;;;;;;;6.18;5.43;;;9.00;99.90;;;;;;5101212;28;20076;-36
2024/02/01 01:19:05;;;;;;;8.40;5.90;;;9.00;99.90;;;;;;5100954;28;20096;-36
2024/02/01 01:21:31;;;;;;;7.10;5.43;;;9.00;99.90;;;;;;5100710;28;20043;-34
2024/02/01 01:23:56;;;;;;;7.47;5.00;;;9.10;99.90;;;;;;5101890;28;20027;-36
2024/02/01 01:26:24;;;;;;;6.00;5.40;;;9.00;99.90;;;;;;5101251;28;20140;-34
2024/02/01 01:28:49;;;;;;;5.88;5.28;;;9.00;99.90;;;;;;5097059;28;20018;-33
2024/02/01 01:31:15;;;;;;;6.00;5.20;;;9.10;99.90;;;;;;5101250;28;20031;-34
2024/02/01 01:33:40;;;;;;;6.38;5.10;;;9.10;99.90;;;;;;5101289;28;20055;-33
2024/02/01 01:36:06;;;;;;;6.57;5.13;;;9.10;99.90;;;;;;5100449;28;20107;-38
2024/02/01 01:38:31;;;;;;;6.97;5.32;;;9.10;99.90;;;;;;5100052;28;20028;-36
2024/02/01 01:40:57;;;;;;;7.13;5.75;;;9.10;99.90;;;;;;5100308;28;20031;-35
2024/02/01 01:43:24;;;;;;;6.47;5.85;;;9.10;99.90;;;;;;5100573;28;20035;-37
2024/02/01 01:46:02;;;;;;;7.15;5.63;;;9.10;99.90;;;;;;5101176;28;20027;-34
2024/02/01 01:48:29;;;;;;;7.65;6.32;;;9.10;99.90;;;;;;5100048;28;20130;-35
2024/02/01 01:50:57;;;;;;;7.63;6.13;;;9.20;99.90;;;;;;5100373;28;20071;-38
2024/02/01 01:53:24;;;;;;;7.72;6.00;;;9.20;99.90;;;;;;5100856;28;20073;-36
2024/02/01 01:55:51;;;;;;;5.60;4.97;;;9.20;99.90;;;;;;5099787;28;20070;-38
2024/02/01 01:58:19;;;;;;;6.53;5.40;;;9.20;99.90;;;;;;5100155;28;20024;-38
2024/02/01 02:00:45;;;;;;;5.95;5.30;;;9.30;99.90;;;;;;5100352;28;20030;-38
2024/02/01 02:03:11;;;;;;;5.75;5.15;;;9.20;99.90;;;;;;5099475;28;20031;-38
2024/02/01 02:05:37;;;;;;;5.57;5.07;;;9.30;99.90;;;;;;5100136;28;20031;-38
2024/02/01 02:08:04;;;;;;;5.85;4.60;;;9.30;99.90;;;;;;5100191;28;20016;-37
2024/02/01 02:10:29;;;;;;;6.53;4.85;;;9.30;99.90;;;;;;5100008;28;20024;-35
2024/02/01 02:13:01;;;;;;;5.75;5.20;;;9.30;99.90;;;;;;5100260;28;20398;-36
2024/02/01 02:15:32;;;;;;;4.80;4.32;;;9.40;99.90;;;;;;5096804;28;20027;-38
2024/02/01 02:17:58;;;;;;;6.15;4.50;;;9.30;99.90;;;;;;5099425;28;20048;-38
2024/02/01 02:20:26;;;;;;;4.45;4.03;;;9.40;99.90;;;;;;5097701;28;20093;-37
2024/02/01 02:22:54;;;;;;;4.40;4.00;;;9.40;99.90;;;;;;5099775;28;20122;-36
2024/02/01 02:25:20;;;;;;;6.95;4.28;;;9.40;99.90;;;;;;5099030;28;20073;-34
2024/02/01 02:27:46;;;;;;;5.25;4.05;;;9.50;99.90;;;;;;5100991;28;20055;-38
2024/02/01 02:30:12;;;;;;;3.65;3.35;;;9.50;99.90;;;;;;5099000;28;20119;-35
2024/02/01 02:32:39;;;;;;;4.63;3.95;;;9.50;99.90;;;;;;5100118;28;20850;-35
2024/02/01 02:35:12;;;;;;;4.95;4.03;;;9.50;99.90;;;;;;5100042;28;20104;-37
2024/02/01 02:37:46;;;;;;;4.95;4.00;;;9.50;99.90;;;;;;5098021;28;20113;-36
2024/02/01 02:40:22;;;;;;;6.47;4.80;;;9.50;99.90;;;;;;5099869;28;20106;-35
2024/02/01 02:42:48;;;;;;;6.60;4.10;;;9.60;99.90;;;;;;5099940;28;20759;-35
2024/02/01 02:45:16;;;;;;;3.72;3.42;;;9.60;99.90;;;;;;5098443;28;20020;-36
2024/02/01 02:47:43;;;;;;;6.35;4.68;;;9.60;99.90;;;;;;5100350;28;20035;-34
2024/02/01 02:50:15;;;;;;;6.03;4.05;;;9.60;99.90;;;;;;5097980;28;20088;-38
2024/02/01 02:52:42;;;;;;;4.90;3.63;;;9.70;99.90;;;;;;5099504;28;20122;-35
2024/02/01 02:55:08;;;;;;;6.18;3.72;;;9.70;99.90;;;;;;5099304;28;20257;-33
2024/02/01 02:57:35;;;;;;;6.00;4.32;;;9.70;99.90;;;;;;5099342;28;20042;-37
2024/02/01 03:00:02;;;;;;;8.10;4.68;;;9.80;99.90;;;;;;5098323;28;20027;-35
2024/02/01 03:02:28;;;;;;;8.68;4.72;;;9.80;99.90;;;;;;5099219;28;20027;-34
2024/02/01 03:04:53;;;;;;;5.47;4.22;;;9.80;99.90;;;;;;5099480;28;20484;-36
2024/02/01 03:07:19;;;;;;;5.13;3.40;;;9.90;99.90;;;;;;5098664;28;20015;-32
2024/02/01 03:09:44;;;;;;;6.50;3.80;;;9.90;99.90;;;;;;5099192;28;20531;-34
2024/02/01 03:12:10;;;;;;;8.60;4.22;;;9.90;99.90;;;;;;5099000;28;20039;-35
2024/02/01 03:14:40;;;;;;;8.43;4.38;;;9.90;99.90;;;;;;5098457;28;20527;-34
2024/02/01 03:17:08;;;;;;;5.70;3.70;;;9.90;99.90;;;;;;5098597;28;20035;-37
2024/02/01 03:19:38;;;;;;;7.88;3.92;;;9.90;99.90;;;;;;5098885;28;20472;-34
2024/02/01 03:22:07;;;;;;;9.35;4.00;;;9.90;99.90;;;;;;5098905;28;20027;-37
2024/02/01 03:24:32;;;;;;;7.50;3.30;;;9.90;99.90;;;;;;5099382;28;20358;-33
2024/02/01 03:26:58;;;;;;;8.77;3.83;;;9.90;99.90;;;;;;5098433;28;20027;-34
2024/02/01 03:29:35;;;;;;;6.47;3.30;;;10.00;99.90;;;;;;5098758;28;20023;-33
2024/02/01 03:32:05;;;;;;;8.60;3.65;;;10.00;99.90;;;;;;5098197;28;20122;-35
2024/02/01 03:34:31;;;;;;;12.02;4.30;;;10.00;99.90;;;;;;5098159;28;20032;-37
2024/02/01 03:36:57;;;;;;;12.88;4.68;;;10.00;99.90;;;;;;5098579;28;20031;-36
2024/02/01 03:39:26;;;;;;;12.82;4.30;;;9.90;99.90;;;;;;5099456;28;20031;-33
2024/02/01 03:41:54;;;;;;;9.23;4.22;;;9.80;99.90;;;;;;5098604;28;20572;-33
2024/02/01 03:44:20;;;;;;;13.27;3.72;;;9.70;99.90;;;;;;5098125;28;20019;-35
2024/02/01 03:46:46;;;;;;;10.38;4.03;;;9.70;99.90;;;;;;5098860;28;20032;-35
2024/02/01 03:49:12;;;;;;;8.95;3.55;;;9.60;99.90;;;;;;5098122;28;20069;-35
2024/02/01 03:51:37;;;;;;;12.60;3.60;;;9.50;99.90;;;;;;5098948;28;20028;-32
2024/02/01 03:54:08;;;;;;;9.88;3.13;;;9.50;99.90;;;;;;5098225;28;20585;-34
2024/02/01 03:56:41;;;;;;;10.70;3.05;;;9.50;99.90;;;;;;5098057;28;20573;-35
2024/02/01 03:59:11;;;;;;;7.63;3.28;;;9.40;99.90;;;;;;5098824;28;20041;-37
2024/02/01 04:01:40;;;;;;;6.13;2.72;;;9.40;99.90;;;;;;5099617;28;20102;-37
2024/02/01 04:04:05;;;;;;;7.70;2.80;;;9.40;99.90;;;;;;5102561;28;20023;-36
2024/02/01 04:06:37;;;;;;;10.93;2.90;;;9.40;99.90;;;;;;5102859;28;20092;-37
2024/02/01 04:09:06;;;;;;;7.72;2.03;;;9.40;99.90;;;;;;5101062;28;20023;-36
2024/02/01 04:11:31;;;;;;;8.02;2.65;;;9.40;99.90;;;;;;5102925;28;20046;-35
2024/02/01 04:13:57;;;;;;;5.53;2.22;;;9.40;99.90;;;;;;5101950;28;20051;-35
2024/02/01 04:16:23;;;;;;;10.48;2.63;;;9.40;99.90;;;;;;5101547;28;20030;-36
2024/02/01 04:18:52;;;;;;;8.10;2.63;;;9.30;99.90;;;;;;5102411;28;20039;-33
2024/02/01 04:21:17;;;;;;;10.95;3.35;;;9.30;99.90;;;;;;5102343;28;20027;-34
2024/02/01 04:23:43;;;;;;;8.82;2.25;;;9.20;99.90;;;;;;5101999;28;20032;-34
2024/02/01 04:26:14;;;;;;;7.63;1.95;;;9.20;99.90;;;;;;5102556;28;20047;-34
2024/02/01 04:28:41;;;;;;;8.68;2.28;;;9.10;99.90;;;;;;5103100;28;20051;-35
2024/02/01 04:31:09;;;;;;;12.45;2.53;;;9.00;99.90;;;;;;5101830;28;20039;-38
2024/02/01 04:33:35;;;;;;;13.30;3.45;;;8.90;99.90;;;;;;5102351;28;20022;-35
2024/02/01 04:36:00;;;;;;;14.27;2.80;;;8.90;99.90;;;;;;5102614;28;20020;-35
2024/02/01 04:38:26;;;;;;;9.10;2.25;;;8.70;99.90;;;;;;5100919;28;20063;-36
2024/02/01 04:40:52;;;;;;;10.40;2.20;;;8.60;99.90;;;;;;5102062;28;20114;-35
2024/02/01 04:43:19;;;;;;;5.30;2.00;;;8.50;99.90;;;;;;5102008;28;20563;-31
2024/02/01 04:45:45;;;;;;;7.15;2.03;;;8.40;99.90;;;;;;5101478;28;20024;-33
2024/02/01 04:48:11;;;;;;;8.57;1.98;;;8.30;99.90;;;;;;5101547;28;20100;-37
2024/02/01 04:50:37;;;;;;;13.38;2.13;;;8.20;99.90;;;;;;5101979;28;20031;-37
2024/02/01 04:53:05;;;;;;;12.35;2.03;;;8.10;99.90;;;;;;5101244;28;20036;-33
2024/02/01 04:55:30;;;;;;;8.77;2.10;;;8.00;99.90;;;;;;5101769;28;20059;-36
2024/02/01 04:57:56;;;;;;;12.60;2.30;;;7.90;99.90;;;;;;5101848;28;20061;-33
2024/02/01 05:00:22;;;;;;;9.75;2.00;;;7.80;99.90;;;;;;5101628;28;20760;-34
2024/02/01 05:02:48;;;;;;;12.25;2.78;;;7.80;99.90;;;;;;5101715;28;20019;-32
2024/02/01 05:05:17;;;;;;;7.53;1.60;;;7.70;99.90;;;;;;5100726;28;20103;-35
2024/02/01 05:07:43;;;;;;;6.85;2.03;;;7.60;99.90;;;;;;5102230;28;20024;-35
2024/02/01 05:10:09;;;;;;;10.43;1.88;;;7.50;99.90;;;;;;5100838;28;20023;-35
2024/02/01 05:12:38;;;;;;;12.15;2.15;;;7.50;99.90;;;;;;5100703;28;20038;-36
2024/02/01 05:15:07;;;;;;;5.90;1.60;;;7.40;99.90;;;;;;5100795;28;20054;-34
2024/02/01 05:17:33;;;;;;;8.43;1.70;;;7.40;99.90;;;;;;5100949;28;20056;-34
2024/02/01 05:19:59;;;;;;;7.40;1.75;;;7.30;99.90;;;;;;5100737;28;20027;-37
2024/02/01 05:22:28;;;;;;;4.88;1.42;;;7.30;99.90;;;;;;5100893;28;20092;-35
2024/02/01 05:24:54;;;;;;;7.70;2.50;;;7.20;99.90;;;;;;5101253;28;20027;-36
2024/02/01 05:27:20;;;;;;;5.05;1.30;;;7.20;99.90;;;;;;5100689;28;20373;-36
2024/02/01 05:29:49;;;;;;;3.97;1.23;;;7.20;99.90;;;;;;5101046;28;20084;-37
2024/02/01 05:32:18;;;;;;;5.40;1.65;;;7.10;99.90;;;;;;5101100;28;20035;-36
2024/02/01 05:34:46;;;;;;;6.85;1.65;;;7.10;99.90;;;;;;5101026;28;20489;-34
2024/02/01 05:37:14;;;;;;;6.75;1.33;;;7.00;99.90;;;;;;5101190;28;20019;-36
2024/02/01 05:39:44;;;;;;;7.82;1.67;;;7.00;99.90;;;;;;5101988;28;20031;-34
2024/02/01 05:42:13;;;;;;;4.50;1.40;;;6.90;99.90;;;;;;5100398;28;20623;-36
2024/02/01 05:44:42;;;;;;;6.65;1.50;;;6.90;99.90;;;;;;5101218;28;20034;-35
2024/02/01 05:47:07;;;;;;;4.45;1.40;;;6.90;99.90;;;;;;5099804;28;20026;-33
2024/02/01 05:49:33;;;;;;;2.83;1.13;;;6.80;99.90;;;;;;5100997;28;20024;-34
2024/02/01 05:52:03;;;;;;;6.07;1.40;;;6.80;99.90;;;;;;5101407;28;20035;-30
2024/02/01 05:54:30;;;;;;;6.13;1.30;;;6.70;99.90;;;;;;5079528;28;20784;-34
2024/02/01 05:56:55;;;;;;;9.90;1.67;;;6.70;99.90;;;;;;5095279;28;20032;-32
2024/02/01 05:59:21;;;;;;;6.78;1.48;;;6.60;99.90;;;;;;5100531;28;20027;-34
2024/02/01 06:01:48;;;;;;;4.93;1.35;;;6.60;99.90;;;;;;5099972;28;20074;-36
2024/02/01 06:04:15;;;;;;;5.68;1.70;;;6.60;99.90;;;;;;5100479;28;20023;-34
2024/02/01 06:06:44;;;;;;;9.52;1.70;;;6.50;99.90;;;;;;5100329;28;20027;-33
2024/02/01 06:09:13;;;;;;;8.50;1.95;;;6.50;99.90;;;;;;5099510;28;20024;-33
2024/02/01 06:11:46;;;;;;;5.47;1.35;;;6.50;99.90;;;;;;5100028;28;20488;-34
2024/02/01 06:14:14;;;;;;;7.90;1.70;;;6.50;99.90;;;;;;5100119;28;20066;-32
2024/02/01 06:16:41;;;;;;;9.75;2.10;;;6.40;99.90;;;;;;5100097;28;20016;-34
2024/02/01 06:19:07;;;;;;;6.38;1.58;;;6.40;99.90;;;;;;5100451;28;20051;-35
2024/02/01 06:21:33;;;;;;;6.55;2.08;;;6.40;99.90;;;;;;5100374;28;20024;-31
2024/02/01 06:23:59;;;;;;;6.00;1.60;;;6.30;99.90;;;;;;5099328;28;20487;-29
2024/02/01 06:26:28;;;;;;;10.10;1.77;;;6.30;99.90;;;;;;5099931;28;20024;-30
2024/02/01 06:28:56;;;;;;;10.57;1.67;;;6.30;99.90;;;;;;5096744;28;20015;-36
2024/02/01 06:31:25;;;;;;;7.85;2.30;;;6.20;99.90;;;;;;5098786;28;20394;-34
2024/02/01 06:33:51;;;;;;;8.35;1.45;;;6.20;99.90;;;;;;5100143;28;20015;-34
2024/02/01 06:36:23;;;;;;;9.60;1.92;;;6.20;99.90;;;;;;5099374;28;20054;-34
2024/02/01 06:44:21;;;;;;;8.50;1.58;;;6.10;99.90;;;;;;5098762;28;20062;-31
2024/02/01 06:50:15;;;;;;;10.05;1.73;;;6.10;99.90;;;;;;5099306;28;20583;-36
2024/02/01 06:54:55;;;;;;;7.32;1.58;;;6.00;99.90;;;;;;5096725;28;20103;-36
2024/02/01 06:57:26;;;;;;;7.32;1.45;;;5.90;99.90;;;;;;5099438;28;20037;-34
2024/02/01 07:05:36;;;;;;;9.40;2.13;;;5.90;99.90;;;;;;5096766;28;20113;-36
2024/02/01 07:08:13;;;;;;;7.20;1.70;;;5.80;99.90;;;;;;5099578;28;20051;-36
2024/02/01 07:10:47;;;;;;;6.95;2.22;;;5.80;99.90;;;;;;5099547;28;20373;-35
2024/02/01 07:13:34;;;;;;;8.30;1.98;;;5.80;99.90;;;;;;5098376;28;20434;-35
2024/02/01 07:16:21;;;;;;;10.52;1.98;;;5.80;99.90;;;;;;5089131;28;20050;-34
2024/02/01 07:19:09;;;;;;;8.32;1.92;;;5.80;99.90;;;;;;5098443;28;20409;-37
2024/02/01 07:21:45;;;;;;;4.63;1.60;;;5.70;99.90;;;;;;5099526;28;20031;-36
2024/02/01 07:24:27;;;;;;;7.43;1.80;;;5.70;99.90;;;;;;5098987;28;20030;-31
2024/02/01 07:57:35;;;;;;;8.88;1.75;;;5.70;99.90;;;;;;5097244;28;20034;-38
2024/02/01 07:59:48;;;;;;;8.82;1.90;;;5.60;99.90;;;;;;5106061;28;20034;-34
2024/02/01 08:02:23;;;;;;;7.30;1.85;;;5.60;99.90;;;;;;5105110;28;20034;-35
2024/02/01 08:07:47;;;;;;;8.07;1.73;;;5.60;99.90;;;;;;5094805;28;20417;-33
2024/02/01 08:10:12;;;;;;;4.80;1.30;;;5.60;99.90;;;;;;5105436;28;20023;-36
2024/02/01 08:12:38;;;;;;;8.77;1.67;;;5.60;99.90;;;;;;5105440;28;20032;-33
2024/02/01 08:15:04;;;;;;;7.35;1.70;;;5.60;99.90;;;;;;5104431;28;20193;-36
2024/02/01 08:17:29;;;;;;;6.95;1.90;;;5.60;99.90;;;;;;5104605;28;20149;-37
2024/02/01 08:19:55;;;;;;;7.00;1.95;;;5.60;99.90;;;;;;5106003;28;20024;-36
2024/02/01 08:22:21;;;;;;;9.20;2.45;;;5.60;99.90;;;;;;5104552;28;20027;-36
2024/02/01 08:24:54;;;;;;;7.80;1.65;;;5.70;99.90;;;;;;5105621;28;20030;-37
2024/02/01 08:27:19;;;;;;;9.00;2.13;;;5.70;99.90;;;;;;5105818;28;20134;-34
2024/02/01 08:29:45;;;;;;;11.18;2.72;;;5.70;99.90;;;;;;5105624;28;20024;-34
2024/02/01 08:32:19;;;;;;;10.25;3.08;;;5.70;99.90;;;;;;5105462;28;20040;-37
2024/02/01 08:34:45;;;;;;;7.63;2.10;;;5.70;99.90;;;;;;5105202;28;20030;-35
2024/02/01 08:37:10;;;;;;;10.10;2.30;;;5.80;99.90;;;;;;5104188;28;20023;-34
2024/02/01 08:39:37;;;;;;;11.25;2.80;;;5.80;99.90;;;;;;5105715;28;20024;-36
2024/02/01 08:42:03;;;;;;;10.93;2.72;;;5.80;99.90;;;;;;5105483;28;20035;-36
2024/02/01 08:44:29;;;;;;;6.97;1.90;;;5.90;99.90;;;;;;5104424;28;20043;-35
2024/02/01 08:46:57;;;;;;;7.00;2.00;;;5.90;99.90;;;;;;5104934;28;20031;-37
2024/02/01 08:49:23;;;;;;;7.63;2.50;;;5.90;99.90;;;;;;5101220;28;20028;-36
2024/02/01 08:51:48;;;;;;;8.90;2.42;;;6.00;99.90;;;;;;5100825;28;20073;-34
2024/02/01 08:54:14;;;;;;;14.52;2.38;;;6.00;99.90;;;;;;5101719;28;20752;-35
2024/02/01 08:56:55;;;;;;;10.70;2.70;;;6.00;99.90;;;;;;5101789;28;20550;-36
2024/02/01 08:59:22;;;;;;;9.02;1.63;;;6.10;99.90;;;;;;5090337;28;20034;-38
2024/02/01 09:01:48;;;;;;;7.03;1.60;;;6.10;99.90;;;;;;5101692;28;20466;-37
2024/02/01 09:04:14;;;;;;;5.60;2.95;;;6.10;99.90;;;;;;5101190;28;20096;-35
2024/02/01 09:06:39;;;;;;;10.38;2.45;;;6.20;99.90;;;;;;5102403;28;20470;-35
2024/02/01 09:09:28;;;;;;;8.00;2.17;;;6.20;99.90;;;;;;5101936;28;20024;-34
2024/02/01 09:11:50;;;;;;;5.72;1.92;;;6.20;99.90;;;;;;5100631;28;20054;-33
2024/02/01 09:14:19;;;;;;;8.98;1.90;;;6.30;99.90;;;;;;5100766;28;20758;-33
2024/02/01 09:16:45;;;;;;;9.13;2.05;;;6.30;99.90;;;;;;5101997;28;20020;-36
2024/02/01 09:19:14;;;;;;;6.45;2.00;;;6.30;99.90;;;;;;5100197;28;20093;-32
2024/02/01 09:21:40;;;;;;;14.57;2.60;;;6.30;99.90;;;;;;5101849;28;20020;-33
2024/02/01 09:24:06;;;;;;;12.88;2.85;;;6.40;99.90;;;;;;5101571;28;20023;-34
2024/02/01 09:26:32;;;;;;;11.18;2.55;;;6.40;99.90;;;;;;5100595;28;20036;-37
2024/02/01 09:28:57;;;;;;;7.55;1.80;;;6.50;99.90;;;;;;5101219;28;20020;-34
2024/02/01 09:31:23;;;;;;;8.45;1.92;;;6.50;99.90;;;;;;5100941;28;20082;-31
2024/02/01 09:33:50;;;;;;;10.50;2.33;;;6.60;99.90;;;;;;5100671;28;20476;-35
2024/02/01 09:36:15;;;;;;;9.55;2.25;;;6.60;99.90;;;;;;5101244;28;20386;-34
2024/02/01 09:38:41;;;;;;;6.53;2.08;;;6.60;99.90;;;;;;5100556;28;20239;-34
2024/02/01 09:41:17;;;;;;;10.35;2.00;;;6.60;99.90;;;;;;5100463;28;20027;-34
2024/02/01 09:43:48;;;;;;;12.93;2.28;;;6.70;99.90;;;;;;5100691;28;20023;-35
2024/02/01 09:46:16;;;;;;;13.50;2.60;;;6.70;99.90;;;;;;5099929;28;20119;-37
2024/02/01 09:48:43;;;;;;;7.85;2.00;;;6.80;99.90;;;;;;5100797;28;20027;-34
2024/02/01 09:51:17;;;;;;;10.77;2.72;;;6.80;99.90;;;;;;5100171;28;20036;-33
2024/02/01 09:53:48;;;;;;;7.00;2.00;;;6.90;99.90;;;;;;5100121;28;20027;-35
2024/02/01 09:56:14;;;;;;;9.70;2.15;;;6.90;99.90;;;;;;5089783;28;20519;-33
2024/02/01 09:58:41;;;;;;;18.50;3.45;;;7.00;99.90;;;;;;5101481;28;20034;-36
2024/02/01 10:01:09;;;;;;;15.48;2.60;;;7.00;99.90;;;;;;5099835;28;20419;-35
2024/02/01 10:03:34;;;;;;;14.82;2.80;;;7.00;99.90;;;;;;5100246;28;20054;-35
2024/02/01 10:06:08;;;;;;;17.02;2.40;;;7.00;99.90;;;;;;5099252;28;20792;-38
2024/02/01 10:08:35;;;;;;;9.98;2.72;;;7.10;99.90;;;;;;5098494;28;20396;-37
2024/02/01 10:11:03;;;;;;;8.63;2.78;;;7.10;99.90;;;;;;5098641;28;20026;-31
2024/02/01 10:13:33;;;;;;;9.68;1.95;;;7.10;99.90;;;;;;5099549;28;20016;-34
2024/02/01 10:16:02;;;;;;;11.13;2.45;;;7.20;99.90;;;;;;5097870;28;20020;-33
2024/02/01 10:18:27;;;;;;;11.35;2.75;;;7.20;99.90;;;;;;5099161;28;20047;-35
2024/02/01 10:20:58;;;;;;;11.45;2.60;;;7.30;99.90;;;;;;5100510;28;20035;-35
2024/02/01 10:23:24;;;;;;;15.43;3.20;;;7.30;99.90;;;;;;5100110;28;20426;-36
2024/02/01 10:25:54;;;;;;;8.85;2.20;;;7.40;99.90;;;;;;5100195;28;20019;-36
2024/02/01 10:28:26;;;;;;;11.75;2.85;;;7.40;99.90;;;;;;5099624;28;20762;-34
2024/02/01 10:30:52;;;;;;;12.02;3.10;;;7.40;99.90;;;;;;5100494;28;20023;-33
2024/02/01 10:33:19;;;;;;;11.23;2.53;;;7.40;99.90;;;;;;5099949;28;20035;-36
2024/02/01 10:35:50;;;;;;;13.27;2.50;;;7.50;99.90;;;;;;5099054;28;20069;-35
2024/02/01 10:38:24;;;;;;;8.10;1.88;;;7.50;99.90;;;;;;5099674;28;20027;-34
2024/02/01 10:40:58;;;;;;;9.80;2.45;;;7.60;99.90;;;;;;5100097;28;20016;-34
2024/02/01 10:43:27;;;;;;;7.25;1.90;;;7.60;99.90;;;;;;5099541;28;20108;-31
2024/02/01 10:46:06;;;;;;;6.85;1.95;;;7.60;99.90;;;;;;5099883;28;20019;-36
2024/02/01 10:48:52;;;;;;;8.40;2.55;;;7.70;99.90;;;;;;5098772;28;20581;-37
2024/02/01 10:51:18;;;;;;;11.13;2.38;;;7.70;99.90;;;;;;5097449;28;20059;-31
2024/02/01 10:53:45;;;;;;;10.82;2.65;;;7.80;99.90;;;;;;5098317;28;20466;-33
2024/02/01 10:56:15;;;;;;;15.85;2.95;;;7.80;99.90;;;;;;5097854;28;20024;-33
2024/02/01 10:58:45;;;;;;;11.32;2.55;;;7.80;99.90;;;;;;5097730;28;20171;-30
2024/02/01 11:01:12;;;;;;;9.43;2.15;;;7.90;99.90;;;;;;5097626;28;20583;-37
2024/02/01 11:03:51;;;;;;;11.00;2.83;;;8.00;99.90;;;;;;5098148;28;20031;-35
2024/02/01 11:06:18;;;;;;;13.45;3.22;;;8.00;99.90;;;;;;5098911;28;20069;-35
2024/02/01 11:08:51;;;;;;;16.27;3.13;;;8.00;99.90;;;;;;5099419;28;20032;-33
2024/02/01 11:11:17;;;;;;;18.55;3.20;;;8.10;99.90;;;;;;5096909;28;20028;-39
2024/02/01 11:14:09;;;;;;;22.63;4.15;;;8.10;99.90;;;;;;5099372;28;20042;-35
2024/02/01 11:16:49;;;;;;;18.55;4.10;;;8.20;99.90;;;;;;5098636;28;20743;-33
2024/02/01 11:19:17;;;;;;;14.77;3.08;;;8.20;99.90;;;;;;5097859;28;20051;-36
2024/02/01 11:21:57;;;;;;;13.82;2.80;;;8.20;99.90;;;;;;5099366;28;20023;-36
2024/02/01 11:24:26;;;;;;;12.95;3.25;;;8.20;99.90;;;;;;5098592;28;20035;-31
2024/02/01 11:27:14;;;;;;;16.02;3.20;;;8.30;99.90;;;;;;5098618;28;20026;-32
2024/02/01 11:29:55;;;;;;;14.18;3.40;;;8.30;99.90;;;;;;5091281;28;20118;-35
2024/02/01 11:32:21;;;;;;;27.67;4.22;;;8.40;99.90;;;;;;5098023;28;20049;-33
2024/02/01 11:34:54;;;;;;;20.77;4.47;;;8.40;99.90;;;;;;5099274;28;20028;-35
2024/02/01 11:37:21;;;;;;;22.33;4.65;;;8.40;99.90;;;;;;5099107;28;20392;-31
2024/02/01 11:39:47;;;;;;;16.70;3.22;;;8.40;99.90;;;;;;5099172;28;20108;-33
2024/02/01 11:42:13;;;;;;;15.35;3.33;;;8.40;99.90;;;;;;5098599;28;20084;-33
2024/02/01 11:44:41;;;;;;;15.70;3.15;;;8.50;99.90;;;;;;5099227;28;20024;-36
2024/02/01 11:47:09;;;;;;;11.23;3.15;;;8.50;99.90;;;;;;5099112;28;20020;-35
2024/02/01 11:49:36;;;;;;;15.07;3.13;;;8.50;99.90;;;;;;5096069;28;20195;-36
2024/02/01 11:52:14;;;;;;;30.63;4.45;;;8.50;99.90;;;;;;5099821;28;20108;-35
2024/02/01 11:54:54;;;;;;;11.95;3.20;;;8.60;99.90;;;;;;5098913;28;20112;-37
2024/02/01 11:57:22;;;;;;;16.25;3.28;;;8.60;99.90;;;;;;5099089;28;20754;-34
2024/02/01 11:59:48;;;;;;;13.00;2.67;;;8.70;99.90;;;;;;5098907;28;20058;-36
2024/02/01 12:02:16;;;;;;;15.15;3.13;;;8.70;99.90;;;;;;5098669;28;20401;-32
2024/02/01 12:04:45;;;;;;;13.55;2.60;;;8.70;99.90;;;;;;5098490;28;20565;-36
2024/02/01 12:07:14;;;;;;;11.95;2.72;;;8.70;99.90;;;;;;5098017;28;20097;-35
2024/02/01 12:09:41;;;;;;;11.82;2.75;;;8.70;99.90;;;;;;5098523;28;20024;-33
2024/02/01 12:12:07;;;;;;;15.13;3.25;;;8.80;99.90;;;;;;5098319;28;20568;-33
2024/02/01 12:14:34;;;;;;;13.02;2.63;;;8.80;99.90;;;;;;5097695;28;20378;-35
2024/02/01 12:17:03;;;;;;;10.82;2.90;;;8.80;99.90;;;;;;5098244;28;20028;-33
2024/02/01 12:19:37;;;;;;;10.40;2.60;;;8.90;99.90;;;;;;5098236;28;20031;-34
2024/02/01 12:22:09;;;;;;;13.73;3.33;;;8.90;99.90;;;;;;5097749;28;20382;-36
2024/02/01 12:24:35;;;;;;;9.15;2.92;;;9.00;99.90;;;;;;5102954;28;20024;-35
2024/02/01 12:27:08;;;;;;;12.27;2.88;;;9.00;99.90;;;;;;5102058;28;20100;-32
2024/02/01 12:29:34;;;;;;;16.67;3.63;;;9.10;99.90;;;;;;5101825;28;20034;-34
2024/02/01 12:32:00;;;;;;;13.70;3.22;;;9.20;99.90;;;;;;5101765;28;20091;-35
2024/02/01 12:34:26;;;;;;;13.35;2.80;;;9.30;99.90;;;;;;5101650;28;20843;-35
2024/02/01 12:36:52;;;;;;;13.23;2.67;;;9.40;99.90;;;;;;5101568;28;20035;-32
2024/02/01 12:39:18;;;;;;;13.95;3.25;;;9.50;99.90;;;;;;5102369;28;20034;-34
2024/02/01 12:41:50;;;;;;;18.27;3.58;;;9.50;99.90;;;;;;5091081;28;20483;-35
2024/02/01 12:44:16;;;;;;;18.88;3.63;;;9.50;99.90;;;;;;5101084;28;20084;-33
2024/02/01 12:46:45;;;;;;;19.02;3.50;;;9.50;99.90;;;;;;5102204;28;20624;-33
2024/02/01 12:49:15;;;;;;;12.90;3.78;;;9.50;99.90;;;;;;5101488;28;20020;-33
2024/02/01 12:51:42;;;;;;;11.27;2.80;;;9.50;99.90;;;;;;5099495;28;20039;-35
2024/02/01 12:54:09;;;;;;;13.43;2.70;;;9.50;99.90;;;;;;5102729;28;20080;-34
2024/02/01 12:56:36;;;;;;;5.85;2.50;;;9.60;99.90;;;;;;5101547;27;20536;-33
2024/02/01 12:59:04;;;;;;;8.30;2.65;;;9.60;99.90;;;;;;5102129;28;20522;-33
2024/02/01 13:01:32;;;;;;;7.70;1.95;;;9.60;99.90;;;;;;5101394;28;20023;-38
2024/02/01 13:03:59;;;;;;;14.10;3.10;;;9.50;99.90;;;;;;5101457;28;20027;-36
2024/02/01 13:06:24;;;;;;;9.88;2.70;;;9.50;99.90;;;;;;5101527;28;20756;-32
2024/02/01 13:08:52;;;;;;;10.27;3.78;;;9.50;99.90;;;;;;5101397;28;20039;-36
2024/02/01 13:11:28;;;;;;;12.63;2.55;;;9.50;99.90;;;;;;5100277;28;20038;-34
2024/02/01 13:13:58;;;;;;;10.40;2.60;;;9.50;99.90;;;;;;5101454;28;20382;-33
2024/02/01 13:16:27;;;;;;;6.82;2.17;;;9.50;99.90;;;;;;5101772;28;20023;-34
2024/02/01 13:18:58;;;;;;;7.70;2.20;;;9.50;99.90;;;;;;5100258;28;20128;-36
2024/02/01 13:21:24;;;;;;;10.70;2.83;;;9.50;99.90;;;;;;5101034;28;20537;-35
2024/02/01 13:23:53;;;;;;;11.18;3.00;;;9.50;99.90;;;;;;5101800;28;20030;-36
2024/02/01 13:26:18;;;;;;;9.65;2.53;;;9.50;99.90;;;;;;5099796;28;20019;-35
2024/02/01 13:28:44;;;;;;;11.02;2.55;;;9.50;99.90;;;;;;5101059;28;20038;-34
2024/02/01 13:31:09;;;;;;;15.75;3.50;;;9.50;99.90;;;;;;5100574;28;20855;-36
2024/02/01 13:33:35;;;;;;;11.43;3.03;;;9.60;99.90;;;;;;5100105;28;20047;-37
2024/02/01 13:36:04;;;;;;;10.93;2.78;;;9.60;99.90;;;;;;5100479;28;20028;-33
2024/02/01 13:38:33;;;;;;;9.05;2.33;;;9.70;99.90;;;;;;5100036;28;20511;-35
2024/02/01 13:40:59;;;;;;;11.02;3.40;;;9.70;99.90;;;;;;5099877;28;20702;-35
2024/02/01 13:43:24;;;;;;;12.65;2.97;;;9.70;99.90;;;;;;5099897;28;20833;-34
2024/02/01 13:45:50;;;;;;;10.93;3.03;;;9.60;99.90;;;;;;5098885;28;20028;-33
2024/02/01 13:48:15;;;;;;;9.45;2.50;;;9.50;99.90;;;;;;5098661;28;20032;-35